sensor_id;sensor_type;location;lat;lon;timestamp;P1;durP1;ratioP1;P2;durP2;ratioP2
31091;SDS011;17747;51.070;10.930;2022-10-16T00:00:17;1061.43;;;969.30;;
31091;SDS011;17747;51.070;10.930;2022-10-16T00:01:50;1067.07;;;974.03;;
31091;SDS011;17747;51.070;10.930;2022-10-16T00:03:21;1072.00;;;978.20;;
31091;SDS011;17747;51.070;10.930;2022-10-16T00:04:52;1071.50;;;977.53;;
31091;SDS011;17747;51.070;10.930;2022-10-16T00:06:25;1074.57;;;980.33;;
31091;SDS011;17747;51.070;10.930;2022-10-16T00:07:57;1076.57;;;981.43;;
31091;SDS011;17747;51.070;10.930;2022-10-16T00:09:28;1072.70;;;978.70;;
31091;SDS011;17747;51.070;10.930;2022-10-16T00:11:01;1071.37;;;977.67;;
31091;SDS011;17747;51.070;10.930;2022-10-16T00:12:34;1073.60;;;979.43;;
31091;SDS011;17747;51.070;10.930;2022-10-16T00:14:06;1076.87;;;982.10;;
31091;SDS011;17747;51.070;10.930;2022-10-16T00:15:39;1076.87;;;981.67;;
31091;SDS011;17747;51.070;10.930;2022-10-16T00:17:14;1075.17;;;980.33;;
31091;SDS011;17747;51.070;10.930;2022-10-16T00:18:45;1072.37;;;978.37;;
31091;SDS011;17747;51.070;10.930;2022-10-16T00:20:17;1074.00;;;979.53;;
31091;SDS011;17747;51.070;10.930;2022-10-16T00:21:49;1077.13;;;982.43;;
31091;SDS011;17747;51.070;10.930;2022-10-16T00:23:20;1077.60;;;983.03;;
31091;SDS011;17747;51.070;10.930;2022-10-16T00:24:53;1075.67;;;981.20;;
31091;SDS011;17747;51.070;10.930;2022-10-16T00:26:25;1076.57;;;981.67;;
31091;SDS011;17747;51.070;10.930;2022-10-16T00:27:58;1077.50;;;982.93;;
31091;SDS011;17747;51.070;10.930;2022-10-16T00:29:29;1080.77;;;985.03;;
31091;SDS011;17747;51.070;10.930;2022-10-16T00:31:02;1080.83;;;985.20;;
31091;SDS011;17747;51.070;10.930;2022-10-16T00:32:35;1081.03;;;985.23;;
31091;SDS011;17747;51.070;10.930;2022-10-16T00:34:07;1078.60;;;983.27;;
31091;SDS011;17747;51.070;10.930;2022-10-16T00:35:38;1078.37;;;982.77;;
31091;SDS011;17747;51.070;10.930;2022-10-16T00:37:09;1076.20;;;981.17;;
31091;SDS011;17747;51.070;10.930;2022-10-16T00:38:41;1077.87;;;982.57;;
31091;SDS011;17747;51.070;10.930;2022-10-16T00:40:11;1078.63;;;983.13;;
31091;SDS011;17747;51.070;10.930;2022-10-16T00:41:43;1079.63;;;984.23;;
31091;SDS011;17747;51.070;10.930;2022-10-16T00:45:05;1080.73;;;985.33;;
31091;SDS011;17747;51.070;10.930;2022-10-16T00:46:37;1081.37;;;985.77;;
31091;SDS011;17747;51.070;10.930;2022-10-16T00:48:12;1076.53;;;981.67;;
31091;SDS011;17747;51.070;10.930;2022-10-16T00:49:45;1073.70;;;979.30;;
31091;SDS011;17747;51.070;10.930;2022-10-16T00:51:17;1072.90;;;978.70;;
31091;SDS011;17747;51.070;10.930;2022-10-16T00:52:51;1079.13;;;984.00;;
31091;SDS011;17747;51.070;10.930;2022-10-16T00:54:25;1075.93;;;980.97;;
31091;SDS011;17747;51.070;10.930;2022-10-16T00:55:57;1078.07;;;982.67;;
31091;SDS011;17747;51.070;10.930;2022-10-16T00:57:29;1076.67;;;981.43;;
31091;SDS011;17747;51.070;10.930;2022-10-16T00:59:01;1076.90;;;981.60;;
31091;SDS011;17747;51.070;10.930;2022-10-16T01:00:37;1076.50;;;981.43;;
31091;SDS011;17747;51.070;10.930;2022-10-16T01:02:11;1079.40;;;983.90;;
31091;SDS011;17747;51.070;10.930;2022-10-16T01:03:45;1080.23;;;984.93;;
31091;SDS011;17747;51.070;10.930;2022-10-16T01:05:17;1071.53;;;977.80;;
31091;SDS011;17747;51.070;10.930;2022-10-16T01:06:49;1069.77;;;976.37;;
31091;SDS011;17747;51.070;10.930;2022-10-16T01:08:29;1071.10;;;977.17;;
31091;SDS011;17747;51.070;10.930;2022-10-16T01:10:13;1069.87;;;976.67;;
31091;SDS011;17747;51.070;10.930;2022-10-16T01:11:54;1068.77;;;975.53;;
31091;SDS011;17747;51.070;10.930;2022-10-16T01:13:33;1070.03;;;976.40;;
31091;SDS011;17747;51.070;10.930;2022-10-16T01:15:10;1075.77;;;980.93;;
31091;SDS011;17747;51.070;10.930;2022-10-16T01:16:47;1073.93;;;979.47;;
31091;SDS011;17747;51.070;10.930;2022-10-16T01:18:25;1077.07;;;981.77;;
31091;SDS011;17747;51.070;10.930;2022-10-16T01:20:10;1076.67;;;981.83;;
31091;SDS011;17747;51.070;10.930;2022-10-16T01:21:47;1069.03;;;976.20;;
31091;SDS011;17747;51.070;10.930;2022-10-16T01:23:27;1071.93;;;977.73;;
31091;SDS011;17747;51.070;10.930;2022-10-16T01:25:11;1079.30;;;984.17;;
31091;SDS011;17747;51.070;10.930;2022-10-16T01:27:00;1081.57;;;985.27;;
31091;SDS011;17747;51.070;10.930;2022-10-16T01:28:36;1081.03;;;985.33;;
31091;SDS011;17747;51.070;10.930;2022-10-16T01:30:13;1082.73;;;986.50;;
31091;SDS011;17747;51.070;10.930;2022-10-16T01:31:48;1081.80;;;985.67;;
31091;SDS011;17747;51.070;10.930;2022-10-16T01:33:27;1083.27;;;987.30;;
31091;SDS011;17747;51.070;10.930;2022-10-16T01:35:05;1079.27;;;984.20;;
31091;SDS011;17747;51.070;10.930;2022-10-16T01:36:41;1080.53;;;985.13;;
31091;SDS011;17747;51.070;10.930;2022-10-16T01:38:16;1081.83;;;986.27;;
31091;SDS011;17747;51.070;10.930;2022-10-16T01:39:51;1083.47;;;987.40;;
31091;SDS011;17747;51.070;10.930;2022-10-16T01:41:30;1080.53;;;984.93;;
31091;SDS011;17747;51.070;10.930;2022-10-16T01:43:07;1082.50;;;987.03;;
31091;SDS011;17747;51.070;10.930;2022-10-16T01:44:43;1088.90;;;991.97;;
31091;SDS011;17747;51.070;10.930;2022-10-16T01:46:16;1087.23;;;990.47;;
31091;SDS011;17747;51.070;10.930;2022-10-16T01:47:51;1082.43;;;987.43;;
31091;SDS011;17747;51.070;10.930;2022-10-16T01:49:23;1083.40;;;988.30;;
31091;SDS011;17747;51.070;10.930;2022-10-16T01:50:58;1085.03;;;989.67;;
31091;SDS011;17747;51.070;10.930;2022-10-16T01:52:35;1086.57;;;990.43;;
31091;SDS011;17747;51.070;10.930;2022-10-16T01:54:09;1087.37;;;990.87;;
31091;SDS011;17747;51.070;10.930;2022-10-16T01:55:45;1087.30;;;991.20;;
31091;SDS011;17747;51.070;10.930;2022-10-16T01:57:19;1087.60;;;991.07;;
31091;SDS011;17747;51.070;10.930;2022-10-16T01:58:57;1086.17;;;989.50;;
31091;SDS011;17747;51.070;10.930;2022-10-16T02:00:31;1087.53;;;991.10;;
31091;SDS011;17747;51.070;10.930;2022-10-16T02:02:05;1090.33;;;993.03;;
31091;SDS011;17747;51.070;10.930;2022-10-16T02:03:40;1089.37;;;992.20;;
31091;SDS011;17747;51.070;10.930;2022-10-16T02:05:15;1089.70;;;992.57;;
31091;SDS011;17747;51.070;10.930;2022-10-16T02:06:53;1088.90;;;991.67;;
31091;SDS011;17747;51.070;10.930;2022-10-16T02:08:25;1091.07;;;993.40;;
31091;SDS011;17747;51.070;10.930;2022-10-16T02:10:01;1090.60;;;993.07;;
31091;SDS011;17747;51.070;10.930;2022-10-16T02:11:33;1091.37;;;993.63;;
31091;SDS011;17747;51.070;10.930;2022-10-16T02:13:06;1090.27;;;992.80;;
31091;SDS011;17747;51.070;10.930;2022-10-16T02:14:40;1092.47;;;994.57;;
31091;SDS011;17747;51.070;10.930;2022-10-16T02:16:12;1091.63;;;993.73;;
31091;SDS011;17747;51.070;10.930;2022-10-16T02:17:45;1090.87;;;993.13;;
31091;SDS011;17747;51.070;10.930;2022-10-16T02:19:15;1088.90;;;991.73;;
31091;SDS011;17747;51.070;10.930;2022-10-16T02:20:51;1089.03;;;991.97;;
31091;SDS011;17747;51.070;10.930;2022-10-16T02:22:27;1091.10;;;993.57;;
31091;SDS011;17747;51.070;10.930;2022-10-16T02:24:02;1093.50;;;996.00;;
31091;SDS011;17747;51.070;10.930;2022-10-16T02:25:40;1090.70;;;992.97;;
31091;SDS011;17747;51.070;10.930;2022-10-16T02:27:17;1091.37;;;993.67;;
31091;SDS011;17747;51.070;10.930;2022-10-16T02:28:52;1093.47;;;995.43;;
31091;SDS011;17747;51.070;10.930;2022-10-16T02:30:30;1094.10;;;996.20;;
31091;SDS011;17747;51.070;10.930;2022-10-16T02:32:05;1093.43;;;995.70;;
31091;SDS011;17747;51.070;10.930;2022-10-16T02:33:40;1095.27;;;996.97;;
31091;SDS011;17747;51.070;10.930;2022-10-16T02:35:15;1094.07;;;995.73;;
31091;SDS011;17747;51.070;10.930;2022-10-16T02:36:48;1095.93;;;997.03;;
31091;SDS011;17747;51.070;10.930;2022-10-16T02:38:21;1094.53;;;995.93;;
31091;SDS011;17747;51.070;10.930;2022-10-16T02:39:55;1095.80;;;997.10;;
31091;SDS011;17747;51.070;10.930;2022-10-16T02:41:28;1095.70;;;997.07;;
31091;SDS011;17747;51.070;10.930;2022-10-16T02:42:59;1096.17;;;997.67;;
31091;SDS011;17747;51.070;10.930;2022-10-16T02:44:30;1091.77;;;993.93;;
31091;SDS011;17747;51.070;10.930;2022-10-16T02:46:02;1094.37;;;996.17;;
31091;SDS011;17747;51.070;10.930;2022-10-16T02:47:34;1094.73;;;996.33;;
31091;SDS011;17747;51.070;10.930;2022-10-16T02:49:04;1094.83;;;996.43;;
31091;SDS011;17747;51.070;10.930;2022-10-16T02:50:36;1096.77;;;998.27;;
31091;SDS011;17747;51.070;10.930;2022-10-16T02:52:07;1095.47;;;996.80;;
31091;SDS011;17747;51.070;10.930;2022-10-16T02:53:38;1095.37;;;996.73;;
31091;SDS011;17747;51.070;10.930;2022-10-16T02:55:09;1092.10;;;994.23;;
31091;SDS011;17747;51.070;10.930;2022-10-16T02:56:41;1094.07;;;995.67;;
31091;SDS011;17747;51.070;10.930;2022-10-16T02:58:12;1093.27;;;994.93;;
31091;SDS011;17747;51.070;10.930;2022-10-16T02:59:44;1095.30;;;996.80;;
31091;SDS011;17747;51.070;10.930;2022-10-16T03:01:17;1093.17;;;994.97;;
31091;SDS011;17747;51.070;10.930;2022-10-16T03:02:48;1095.63;;;996.97;;
31091;SDS011;17747;51.070;10.930;2022-10-16T03:04:19;1092.67;;;995.23;;
31091;SDS011;17747;51.070;10.930;2022-10-16T03:05:51;1094.63;;;996.37;;
31091;SDS011;17747;51.070;10.930;2022-10-16T03:07:22;1094.17;;;995.70;;
31091;SDS011;17747;51.070;10.930;2022-10-16T03:08:54;1096.60;;;997.87;;
31091;SDS011;17747;51.070;10.930;2022-10-16T03:10:25;1096.07;;;997.23;;
31091;SDS011;17747;51.070;10.930;2022-10-16T03:11:57;1096.43;;;997.57;;
31091;SDS011;17747;51.070;10.930;2022-10-16T03:13:27;1093.60;;;994.97;;
31091;SDS011;17747;51.070;10.930;2022-10-16T03:14:59;1094.00;;;995.40;;
31091;SDS011;17747;51.070;10.930;2022-10-16T03:16:31;1093.23;;;994.93;;
31091;SDS011;17747;51.070;10.930;2022-10-16T03:18:02;1091.93;;;993.53;;
31091;SDS011;17747;51.070;10.930;2022-10-16T03:19:33;1097.87;;;998.53;;
31091;SDS011;17747;51.070;10.930;2022-10-16T03:21:05;1096.33;;;997.17;;
31091;SDS011;17747;51.070;10.930;2022-10-16T03:22:37;1092.90;;;994.60;;
31091;SDS011;17747;51.070;10.930;2022-10-16T03:24:08;1092.00;;;994.00;;
31091;SDS011;17747;51.070;10.930;2022-10-16T03:25:39;1092.50;;;994.17;;
31091;SDS011;17747;51.070;10.930;2022-10-16T03:27:10;1093.00;;;995.23;;
31091;SDS011;17747;51.070;10.930;2022-10-16T03:28:42;1092.13;;;993.80;;
31091;SDS011;17747;51.070;10.930;2022-10-16T03:30:13;1092.70;;;994.43;;
31091;SDS011;17747;51.070;10.930;2022-10-16T03:31:46;1091.50;;;993.00;;
31091;SDS011;17747;51.070;10.930;2022-10-16T03:33:18;1089.40;;;992.10;;
31091;SDS011;17747;51.070;10.930;2022-10-16T03:34:50;1090.43;;;993.03;;
31091;SDS011;17747;51.070;10.930;2022-10-16T03:36:23;1090.07;;;992.63;;
31091;SDS011;17747;51.070;10.930;2022-10-16T03:37:54;1091.57;;;994.13;;
31091;SDS011;17747;51.070;10.930;2022-10-16T03:39:26;1091.40;;;993.97;;
31091;SDS011;17747;51.070;10.930;2022-10-16T03:40:58;1094.00;;;995.80;;
31091;SDS011;17747;51.070;10.930;2022-10-16T03:42:28;1091.60;;;993.93;;
31091;SDS011;17747;51.070;10.930;2022-10-16T03:44:00;1092.57;;;994.53;;
31091;SDS011;17747;51.070;10.930;2022-10-16T03:45:31;1087.30;;;991.70;;
31091;SDS011;17747;51.070;10.930;2022-10-16T03:47:04;1091.13;;;994.63;;
31091;SDS011;17747;51.070;10.930;2022-10-16T03:48:34;1093.03;;;996.03;;
31091;SDS011;17747;51.070;10.930;2022-10-16T03:50:07;1093.90;;;996.53;;
31091;SDS011;17747;51.070;10.930;2022-10-16T03:51:38;1094.67;;;997.13;;
31091;SDS011;17747;51.070;10.930;2022-10-16T03:53:09;1095.47;;;997.83;;
31091;SDS011;17747;51.070;10.930;2022-10-16T03:54:41;1095.73;;;997.97;;
31091;SDS011;17747;51.070;10.930;2022-10-16T03:56:12;1097.50;;;998.87;;
31091;SDS011;17747;51.070;10.930;2022-10-16T03:57:44;1097.70;;;998.97;;
31091;SDS011;17747;51.070;10.930;2022-10-16T03:59:16;1096.23;;;997.90;;
31091;SDS011;17747;51.070;10.930;2022-10-16T04:00:47;1096.30;;;998.03;;
31091;SDS011;17747;51.070;10.930;2022-10-16T04:02:20;1097.23;;;998.60;;
31091;SDS011;17747;51.070;10.930;2022-10-16T04:03:51;1095.90;;;998.13;;
31091;SDS011;17747;51.070;10.930;2022-10-16T04:05:22;1095.70;;;997.53;;
31091;SDS011;17747;51.070;10.930;2022-10-16T04:06:54;1097.27;;;998.40;;
31091;SDS011;17747;51.070;10.930;2022-10-16T04:08:24;1097.43;;;998.47;;
31091;SDS011;17747;51.070;10.930;2022-10-16T04:09:56;1098.77;;;999.10;;
31091;SDS011;17747;51.070;10.930;2022-10-16T04:11:28;1097.87;;;998.40;;
31091;SDS011;17747;51.070;10.930;2022-10-16T04:12:59;1097.07;;;997.73;;
31091;SDS011;17747;51.070;10.930;2022-10-16T04:14:30;1098.03;;;998.50;;
31091;SDS011;17747;51.070;10.930;2022-10-16T04:16:02;1096.77;;;997.57;;
31091;SDS011;17747;51.070;10.930;2022-10-16T04:17:35;1098.70;;;998.80;;
31091;SDS011;17747;51.070;10.930;2022-10-16T04:19:06;1097.97;;;998.53;;
31091;SDS011;17747;51.070;10.930;2022-10-16T04:20:38;1097.40;;;998.27;;
31091;SDS011;17747;51.070;10.930;2022-10-16T04:22:08;1095.83;;;997.13;;
31091;SDS011;17747;51.070;10.930;2022-10-16T04:23:40;1093.37;;;995.10;;
31091;SDS011;17747;51.070;10.930;2022-10-16T04:25:11;1093.37;;;994.87;;
31091;SDS011;17747;51.070;10.930;2022-10-16T04:26:43;1093.17;;;994.97;;
31091;SDS011;17747;51.070;10.930;2022-10-16T04:28:13;1093.83;;;995.60;;
31091;SDS011;17747;51.070;10.930;2022-10-16T04:29:45;1093.67;;;995.37;;
31091;SDS011;17747;51.070;10.930;2022-10-16T04:31:16;1092.27;;;994.17;;
31091;SDS011;17747;51.070;10.930;2022-10-16T04:32:49;1091.80;;;993.97;;
31091;SDS011;17747;51.070;10.930;2022-10-16T04:34:21;1096.27;;;997.27;;
31091;SDS011;17747;51.070;10.930;2022-10-16T04:35:58;1094.33;;;995.37;;
31091;SDS011;17747;51.070;10.930;2022-10-16T04:37:31;1093.50;;;994.70;;
31091;SDS011;17747;51.070;10.930;2022-10-16T04:39:02;1095.90;;;996.80;;
31091;SDS011;17747;51.070;10.930;2022-10-16T04:40:33;1094.50;;;995.73;;
31091;SDS011;17747;51.070;10.930;2022-10-16T04:42:06;1094.07;;;995.53;;
31091;SDS011;17747;51.070;10.930;2022-10-16T04:43:37;1092.60;;;994.37;;
31091;SDS011;17747;51.070;10.930;2022-10-16T04:45:09;1096.70;;;997.47;;
31091;SDS011;17747;51.070;10.930;2022-10-16T04:46:41;1096.23;;;996.93;;
31091;SDS011;17747;51.070;10.930;2022-10-16T04:48:15;1094.37;;;995.30;;
31091;SDS011;17747;51.070;10.930;2022-10-16T04:49:47;1096.53;;;997.57;;
31091;SDS011;17747;51.070;10.930;2022-10-16T04:51:18;1095.83;;;996.73;;
31091;SDS011;17747;51.070;10.930;2022-10-16T04:52:49;1098.90;;;998.80;;
31091;SDS011;17747;51.070;10.930;2022-10-16T04:54:21;1099.07;;;998.87;;
31091;SDS011;17747;51.070;10.930;2022-10-16T04:55:53;1097.73;;;998.17;;
31091;SDS011;17747;51.070;10.930;2022-10-16T04:57:24;1098.73;;;998.67;;
31091;SDS011;17747;51.070;10.930;2022-10-16T04:58:56;1099.50;;;999.20;;
31091;SDS011;17747;51.070;10.930;2022-10-16T05:00:28;1098.43;;;998.43;;
31091;SDS011;17747;51.070;10.930;2022-10-16T05:01:58;1100.07;;;999.43;;
31091;SDS011;17747;51.070;10.930;2022-10-16T05:03:31;1098.97;;;998.73;;
31091;SDS011;17747;51.070;10.930;2022-10-16T05:05:03;1098.27;;;998.17;;
31091;SDS011;17747;51.070;10.930;2022-10-16T05:06:35;1099.50;;;999.00;;
31091;SDS011;17747;51.070;10.930;2022-10-16T05:08:06;1097.97;;;998.00;;
31091;SDS011;17747;51.070;10.930;2022-10-16T05:09:37;1096.90;;;997.40;;
31091;SDS011;17747;51.070;10.930;2022-10-16T05:11:09;1097.80;;;998.07;;
31091;SDS011;17747;51.070;10.930;2022-10-16T05:12:40;1098.17;;;998.27;;
31091;SDS011;17747;51.070;10.930;2022-10-16T05:14:12;1097.20;;;997.53;;
31091;SDS011;17747;51.070;10.930;2022-10-16T05:15:46;1099.17;;;998.90;;
31091;SDS011;17747;51.070;10.930;2022-10-16T05:17:18;1097.53;;;997.47;;
31091;SDS011;17747;51.070;10.930;2022-10-16T05:18:50;1098.97;;;998.50;;
31091;SDS011;17747;51.070;10.930;2022-10-16T05:20:22;1100.47;;;999.43;;
31091;SDS011;17747;51.070;10.930;2022-10-16T05:21:54;1098.03;;;998.00;;
31091;SDS011;17747;51.070;10.930;2022-10-16T05:23:25;1097.43;;;998.03;;
31091;SDS011;17747;51.070;10.930;2022-10-16T05:24:57;1098.93;;;998.70;;
31091;SDS011;17747;51.070;10.930;2022-10-16T05:26:28;1098.33;;;998.13;;
31091;SDS011;17747;51.070;10.930;2022-10-16T05:28:00;1096.50;;;997.43;;
31091;SDS011;17747;51.070;10.930;2022-10-16T05:29:31;1095.80;;;996.67;;
31091;SDS011;17747;51.070;10.930;2022-10-16T05:31:06;1097.00;;;997.80;;
31091;SDS011;17747;51.070;10.930;2022-10-16T05:32:39;1093.23;;;994.53;;
31091;SDS011;17747;51.070;10.930;2022-10-16T05:34:11;1093.63;;;995.70;;
31091;SDS011;17747;51.070;10.930;2022-10-16T05:35:43;1089.53;;;992.47;;
31091;SDS011;17747;51.070;10.930;2022-10-16T05:37:15;1094.30;;;995.67;;
31091;SDS011;17747;51.070;10.930;2022-10-16T05:38:50;1091.03;;;993.47;;
31091;SDS011;17747;51.070;10.930;2022-10-16T05:40:22;1091.50;;;993.90;;
31091;SDS011;17747;51.070;10.930;2022-10-16T05:41:53;1093.37;;;994.87;;
31091;SDS011;17747;51.070;10.930;2022-10-16T05:43:26;1093.87;;;995.30;;
31091;SDS011;17747;51.070;10.930;2022-10-16T05:44:58;1092.67;;;994.47;;
31091;SDS011;17747;51.070;10.930;2022-10-16T05:46:30;1092.77;;;994.37;;
31091;SDS011;17747;51.070;10.930;2022-10-16T05:48:01;1093.00;;;994.47;;
31091;SDS011;17747;51.070;10.930;2022-10-16T05:49:34;1093.80;;;995.33;;
31091;SDS011;17747;51.070;10.930;2022-10-16T05:51:05;1092.10;;;993.90;;
31091;SDS011;17747;51.070;10.930;2022-10-16T05:52:38;1091.03;;;992.87;;
31091;SDS011;17747;51.070;10.930;2022-10-16T05:54:09;1092.03;;;993.57;;
31091;SDS011;17747;51.070;10.930;2022-10-16T05:55:41;1090.77;;;992.73;;
31091;SDS011;17747;51.070;10.930;2022-10-16T05:57:11;1091.33;;;993.43;;
31091;SDS011;17747;51.070;10.930;2022-10-16T05:58:43;1089.40;;;991.57;;
31091;SDS011;17747;51.070;10.930;2022-10-16T06:00:15;1090.73;;;993.17;;
31091;SDS011;17747;51.070;10.930;2022-10-16T06:01:46;1090.40;;;992.50;;
31091;SDS011;17747;51.070;10.930;2022-10-16T06:03:18;1087.83;;;990.23;;
31091;SDS011;17747;51.070;10.930;2022-10-16T06:04:50;1090.83;;;993.23;;
31091;SDS011;17747;51.070;10.930;2022-10-16T06:06:25;1085.60;;;988.80;;
31091;SDS011;17747;51.070;10.930;2022-10-16T06:07:58;1084.73;;;987.97;;
31091;SDS011;17747;51.070;10.930;2022-10-16T06:09:29;1083.43;;;986.83;;
31091;SDS011;17747;51.070;10.930;2022-10-16T06:11:01;1084.13;;;987.33;;
31091;SDS011;17747;51.070;10.930;2022-10-16T06:12:33;1076.13;;;980.93;;
31091;SDS011;17747;51.070;10.930;2022-10-16T06:14:05;1082.03;;;985.63;;
31091;SDS011;17747;51.070;10.930;2022-10-16T06:15:37;1078.17;;;982.60;;
31091;SDS011;17747;51.070;10.930;2022-10-16T06:17:09;1076.67;;;981.57;;
31091;SDS011;17747;51.070;10.930;2022-10-16T06:18:40;1074.17;;;979.90;;
31091;SDS011;17747;51.070;10.930;2022-10-16T06:20:13;1075.93;;;981.33;;
31091;SDS011;17747;51.070;10.930;2022-10-16T06:21:45;1071.70;;;977.57;;
31091;SDS011;17747;51.070;10.930;2022-10-16T06:23:16;1072.50;;;977.97;;
31091;SDS011;17747;51.070;10.930;2022-10-16T06:24:48;1071.37;;;976.83;;
31091;SDS011;17747;51.070;10.930;2022-10-16T06:26:20;1072.90;;;978.40;;
31091;SDS011;17747;51.070;10.930;2022-10-16T06:27:53;1069.93;;;975.73;;
31091;SDS011;17747;51.070;10.930;2022-10-16T06:29:25;1071.93;;;977.57;;
31091;SDS011;17747;51.070;10.930;2022-10-16T06:30:58;1079.87;;;984.27;;
31091;SDS011;17747;51.070;10.930;2022-10-16T06:32:29;1072.10;;;977.63;;
31091;SDS011;17747;51.070;10.930;2022-10-16T06:34:01;1070.20;;;976.10;;
31091;SDS011;17747;51.070;10.930;2022-10-16T06:35:36;1067.60;;;973.60;;
31091;SDS011;17747;51.070;10.930;2022-10-16T06:37:07;1074.73;;;979.93;;
31091;SDS011;17747;51.070;10.930;2022-10-16T06:38:38;1066.00;;;972.23;;
31091;SDS011;17747;51.070;10.930;2022-10-16T06:40:10;1070.13;;;976.20;;
31091;SDS011;17747;51.070;10.930;2022-10-16T06:41:44;1067.57;;;974.00;;
31091;SDS011;17747;51.070;10.930;2022-10-16T06:43:15;1072.33;;;978.03;;
31091;SDS011;17747;51.070;10.930;2022-10-16T06:44:46;1066.67;;;973.00;;
31091;SDS011;17747;51.070;10.930;2022-10-16T06:46:18;1071.30;;;976.77;;
31091;SDS011;17747;51.070;10.930;2022-10-16T06:47:51;1074.23;;;979.53;;
31091;SDS011;17747;51.070;10.930;2022-10-16T06:49:22;1083.03;;;986.90;;
31091;SDS011;17747;51.070;10.930;2022-10-16T06:50:56;1075.47;;;980.20;;
31091;SDS011;17747;51.070;10.930;2022-10-16T06:52:27;1073.63;;;978.93;;
31091;SDS011;17747;51.070;10.930;2022-10-16T06:53:59;1075.20;;;980.23;;
31091;SDS011;17747;51.070;10.930;2022-10-16T06:55:30;1073.77;;;978.97;;
31091;SDS011;17747;51.070;10.930;2022-10-16T06:57:01;1071.87;;;977.60;;
31091;SDS011;17747;51.070;10.930;2022-10-16T06:58:32;1067.93;;;974.47;;
31091;SDS011;17747;51.070;10.930;2022-10-16T07:00:04;1064.70;;;971.70;;
31091;SDS011;17747;51.070;10.930;2022-10-16T07:01:37;1069.30;;;975.40;;
31091;SDS011;17747;51.070;10.930;2022-10-16T07:03:08;1066.20;;;972.63;;
31091;SDS011;17747;51.070;10.930;2022-10-16T07:04:40;1070.50;;;976.37;;
31091;SDS011;17747;51.070;10.930;2022-10-16T07:06:13;1070.00;;;975.70;;
31091;SDS011;17747;51.070;10.930;2022-10-16T07:07:45;1065.60;;;972.63;;
31091;SDS011;17747;51.070;10.930;2022-10-16T07:09:17;1066.13;;;972.67;;
31091;SDS011;17747;51.070;10.930;2022-10-16T07:10:48;1065.80;;;972.33;;
31091;SDS011;17747;51.070;10.930;2022-10-16T07:12:27;1071.23;;;976.73;;
31091;SDS011;17747;51.070;10.930;2022-10-16T07:13:59;1064.83;;;971.33;;
31091;SDS011;17747;51.070;10.930;2022-10-16T07:15:30;1067.77;;;973.83;;
31091;SDS011;17747;51.070;10.930;2022-10-16T07:17:02;1076.57;;;981.37;;
31091;SDS011;17747;51.070;10.930;2022-10-16T07:18:33;1071.27;;;976.93;;
31091;SDS011;17747;51.070;10.930;2022-10-16T07:20:05;1071.60;;;977.43;;
31091;SDS011;17747;51.070;10.930;2022-10-16T07:21:39;1070.10;;;976.00;;
31091;SDS011;17747;51.070;10.930;2022-10-16T07:23:10;1072.00;;;977.70;;
31091;SDS011;17747;51.070;10.930;2022-10-16T07:24:42;1070.33;;;976.00;;
31091;SDS011;17747;51.070;10.930;2022-10-16T07:26:14;1073.10;;;978.60;;
31091;SDS011;17747;51.070;10.930;2022-10-16T07:27:45;1071.30;;;977.10;;
31091;SDS011;17747;51.070;10.930;2022-10-16T07:29:18;1079.57;;;983.97;;
31091;SDS011;17747;51.070;10.930;2022-10-16T07:30:51;1079.23;;;983.60;;
31091;SDS011;17747;51.070;10.930;2022-10-16T07:32:23;1079.30;;;983.60;;
31091;SDS011;17747;51.070;10.930;2022-10-16T07:33:57;1073.77;;;978.90;;
31091;SDS011;17747;51.070;10.930;2022-10-16T07:35:29;1072.77;;;978.37;;
31091;SDS011;17747;51.070;10.930;2022-10-16T07:37:02;1074.70;;;979.90;;
31091;SDS011;17747;51.070;10.930;2022-10-16T07:38:33;1074.80;;;980.03;;
31091;SDS011;17747;51.070;10.930;2022-10-16T07:40:04;1073.17;;;978.70;;
31091;SDS011;17747;51.070;10.930;2022-10-16T07:41:36;1069.20;;;975.23;;
31091;SDS011;17747;51.070;10.930;2022-10-16T07:43:08;1068.90;;;974.93;;
31091;SDS011;17747;51.070;10.930;2022-10-16T07:44:39;1076.10;;;981.23;;
31091;SDS011;17747;51.070;10.930;2022-10-16T07:46:11;1073.90;;;978.97;;
31091;SDS011;17747;51.070;10.930;2022-10-16T07:47:42;1073.07;;;978.63;;
31091;SDS011;17747;51.070;10.930;2022-10-16T07:49:14;1079.13;;;983.63;;
31091;SDS011;17747;51.070;10.930;2022-10-16T07:50:45;1075.67;;;980.37;;
31091;SDS011;17747;51.070;10.930;2022-10-16T07:52:17;1073.27;;;978.90;;
31091;SDS011;17747;51.070;10.930;2022-10-16T07:53:49;1073.37;;;978.97;;
31091;SDS011;17747;51.070;10.930;2022-10-16T07:55:21;1075.93;;;981.63;;
31091;SDS011;17747;51.070;10.930;2022-10-16T07:56:52;1078.87;;;984.37;;
31091;SDS011;17747;51.070;10.930;2022-10-16T07:58:24;1082.03;;;985.80;;
31091;SDS011;17747;51.070;10.930;2022-10-16T07:59:55;1079.23;;;983.57;;
31091;SDS011;17747;51.070;10.930;2022-10-16T08:01:27;1077.60;;;982.50;;
31091;SDS011;17747;51.070;10.930;2022-10-16T08:02:58;1075.30;;;980.17;;
31091;SDS011;17747;51.070;10.930;2022-10-16T08:04:30;1075.37;;;980.23;;
31091;SDS011;17747;51.070;10.930;2022-10-16T08:06:02;1076.20;;;981.10;;
31091;SDS011;17747;51.070;10.930;2022-10-16T08:07:35;1079.93;;;983.70;;
31091;SDS011;17747;51.070;10.930;2022-10-16T08:09:07;1089.67;;;992.17;;
31091;SDS011;17747;51.070;10.930;2022-10-16T08:10:39;1094.27;;;995.17;;
31091;SDS011;17747;51.070;10.930;2022-10-16T08:12:11;1091.70;;;993.60;;
31091;SDS011;17747;51.070;10.930;2022-10-16T08:13:42;1094.47;;;996.33;;
31091;SDS011;17747;51.070;10.930;2022-10-16T08:15:14;1092.73;;;994.40;;
31091;SDS011;17747;51.070;10.930;2022-10-16T08:16:44;1090.50;;;992.53;;
31091;SDS011;17747;51.070;10.930;2022-10-16T08:18:16;1088.40;;;990.97;;
31091;SDS011;17747;51.070;10.930;2022-10-16T08:19:47;1089.83;;;992.07;;
31091;SDS011;17747;51.070;10.930;2022-10-16T08:21:20;1091.17;;;993.23;;
31091;SDS011;17747;51.070;10.930;2022-10-16T08:22:55;1091.10;;;993.10;;
31091;SDS011;17747;51.070;10.930;2022-10-16T08:24:26;1089.10;;;991.43;;
31091;SDS011;17747;51.070;10.930;2022-10-16T08:26:04;1093.93;;;995.53;;
31091;SDS011;17747;51.070;10.930;2022-10-16T08:27:37;1091.67;;;993.47;;
31091;SDS011;17747;51.070;10.930;2022-10-16T08:29:07;1091.97;;;993.90;;
31091;SDS011;17747;51.070;10.930;2022-10-16T08:30:38;1093.50;;;995.10;;
31091;SDS011;17747;51.070;10.930;2022-10-16T08:32:10;1093.03;;;994.70;;
31091;SDS011;17747;51.070;10.930;2022-10-16T08:33:42;1095.20;;;996.50;;